createdAt,value
2018-12-24T00:00:07.118Z,0.00
2018-12-24T00:01:07.307Z,0.00
2018-12-24T00:02:07.496Z,0.00
2018-12-24T00:03:07.677Z,0.00
2018-12-24T00:04:07.856Z,0.00
2018-12-24T00:05:08.044Z,0.00
2018-12-24T00:06:08.226Z,0.00
2018-12-24T00:07:08.407Z,0.00
2018-12-24T00:08:08.587Z,0.00
2018-12-24T00:09:08.784Z,0.00
2018-12-24T00:10:08.975Z,0.00
2018-12-24T00:11:09.160Z,0.00
2018-12-24T00:12:09.339Z,0.00
2018-12-24T00:13:09.520Z,0.00
2018-12-24T00:14:09.699Z,0.00
2018-12-24T00:15:09.893Z,0.00
2018-12-24T00:16:10.080Z,0.00
2018-12-24T00:17:10.285Z,0.00
2018-12-24T00:18:10.441Z,0.00
2018-12-24T00:19:10.623Z,0.00
2018-12-24T00:20:10.811Z,0.00
2018-12-24T00:21:11.011Z,0.00
2018-12-24T00:22:11.220Z,0.00
2018-12-24T00:23:11.373Z,0.00
2018-12-24T00:24:11.559Z,0.00
2018-12-24T00:25:11.742Z,0.00
2018-12-24T00:26:11.934Z,0.00
2018-12-24T00:27:12.107Z,0.00
2018-12-24T00:28:12.284Z,0.00
2018-12-24T00:29:12.476Z,0.00
2018-12-24T00:30:12.662Z,0.00
2018-12-24T00:31:12.906Z,0.00
2018-12-24T00:32:13.058Z,0.00
2018-12-24T00:33:13.249Z,0.00
2018-12-24T00:34:13.454Z,0.00
2018-12-24T00:35:13.571Z,0.00
2018-12-24T00:36:13.757Z,0.00
2018-12-24T00:37:13.937Z,0.00
2018-12-24T00:38:14.118Z,0.00
2018-12-24T00:39:14.311Z,0.00
2018-12-24T00:40:14.497Z,0.00
2018-12-24T00:41:14.718Z,0.00
2018-12-24T00:42:15.910Z,0.00
2018-12-24T00:43:15.196Z,0.00
2018-12-24T00:44:15.306Z,0.00
2018-12-24T00:45:15.486Z,0.00
2018-12-24T00:46:15.670Z,0.00
2018-12-24T00:47:15.853Z,0.00
2018-12-24T00:48:16.033Z,0.00
2018-12-24T00:49:16.216Z,0.00
2018-12-24T00:50:16.393Z,0.00
2018-12-24T00:51:16.575Z,0.00
2018-12-24T00:52:16.772Z,0.00
2018-12-24T00:53:16.964Z,0.00
2018-12-24T00:54:17.146Z,0.00
2018-12-24T00:55:17.330Z,0.00
2018-12-24T00:56:17.592Z,0.00
2018-12-24T00:57:17.632Z,0.00
2018-12-24T00:58:17.826Z,0.00
2018-12-24T00:59:18.075Z,0.00
2018-12-24T01:00:18.210Z,0.00
2018-12-24T01:01:18.392Z,0.00
2018-12-24T01:02:18.591Z,0.00
2018-12-24T01:03:18.775Z,0.00
2018-12-24T01:04:18.964Z,0.00
2018-12-24T01:05:19.138Z,0.00
2018-12-24T01:06:19.775Z,0.00
2018-12-24T01:07:19.498Z,0.00
2018-12-24T01:08:19.718Z,0.00
2018-12-24T01:09:19.898Z,0.00
2018-12-24T01:10:20.086Z,0.00
2018-12-24T01:11:20.275Z,0.00
2018-12-24T01:12:24.576Z,0.00
2018-12-24T01:13:20.632Z,0.00
2018-12-24T01:14:20.813Z,0.00
2018-12-24T01:15:20.995Z,0.00
2018-12-24T01:16:21.173Z,0.00
2018-12-24T01:17:21.362Z,0.00
2018-12-24T01:18:21.531Z,0.00
2018-12-24T01:19:21.709Z,0.00
2018-12-24T01:20:21.890Z,0.00
2018-12-24T01:21:22.066Z,0.00
2018-12-24T01:22:22.258Z,0.00
2018-12-24T01:23:22.427Z,0.00
2018-12-24T01:24:22.609Z,0.00
2018-12-24T01:25:22.827Z,0.00
2018-12-24T01:26:23.006Z,0.00
2018-12-24T01:27:23.186Z,0.00
2018-12-24T01:28:23.367Z,0.00
2018-12-24T01:29:23.549Z,0.00
2018-12-24T01:30:23.730Z,0.00
2018-12-24T01:31:23.911Z,0.00
2018-12-24T01:32:24.091Z,0.00
2018-12-24T01:33:24.269Z,0.00
2018-12-24T01:34:24.451Z,0.00
2018-12-24T01:35:24.644Z,0.00
2018-12-24T01:36:24.823Z,0.00
2018-12-24T01:37:25.008Z,0.00
2018-12-24T01:38:25.185Z,0.00
2018-12-24T01:39:25.370Z,0.00
2018-12-24T01:40:25.554Z,0.00
2018-12-24T01:41:25.732Z,0.00
2018-12-24T01:42:33.396Z,0.00
2018-12-24T01:43:27.129Z,0.00
2018-12-24T01:44:26.312Z,0.00
2018-12-24T01:45:26.501Z,0.00
2018-12-24T01:46:26.693Z,0.00
2018-12-24T01:47:26.865Z,0.00
2018-12-24T01:48:27.054Z,0.00
2018-12-24T01:49:27.228Z,0.00
2018-12-24T01:50:27.413Z,0.00
2018-12-24T01:51:27.597Z,0.00
2018-12-24T01:52:27.775Z,0.00
2018-12-24T01:53:27.954Z,0.00
2018-12-24T01:54:28.139Z,0.00
2018-12-24T01:55:28.315Z,0.00
2018-12-24T01:56:28.506Z,0.00
2018-12-24T01:57:28.685Z,0.00
2018-12-24T01:58:28.863Z,0.00
2018-12-24T01:59:29.042Z,0.00
2018-12-24T02:00:29.226Z,0.00
2018-12-24T02:01:29.406Z,0.00
2018-12-24T02:02:29.591Z,0.00
2018-12-24T02:03:29.775Z,0.00
2018-12-24T02:04:29.973Z,0.00
2018-12-24T02:05:30.156Z,0.00
2018-12-24T02:06:30.334Z,0.00
2018-12-24T02:07:30.519Z,0.00
2018-12-24T02:08:30.704Z,0.00
2018-12-24T02:09:30.888Z,0.00
2018-12-24T02:10:31.066Z,0.00
2018-12-24T02:11:31.245Z,0.00
2018-12-24T02:12:31.429Z,0.00
2018-12-24T02:13:31.611Z,0.00
2018-12-24T02:14:31.791Z,0.00
2018-12-24T02:15:31.977Z,0.00
2018-12-24T02:16:32.163Z,0.00
2018-12-24T02:17:32.342Z,0.00
2018-12-24T02:18:32.517Z,0.00
2018-12-24T02:19:32.715Z,0.00
2018-12-24T02:20:32.889Z,0.00
2018-12-24T02:21:33.072Z,0.00
2018-12-24T02:22:33.257Z,0.00
2018-12-24T02:23:33.453Z,0.00
2018-12-24T02:24:33.633Z,0.00
2018-12-24T02:25:33.816Z,0.00
2018-12-24T02:26:34.012Z,0.00
2018-12-24T02:27:34.193Z,0.00
2018-12-24T02:28:34.375Z,0.00
2018-12-24T02:29:34.557Z,0.00
2018-12-24T02:30:34.740Z,0.00
2018-12-24T02:31:34.922Z,0.00
2018-12-24T02:32:35.098Z,0.00
2018-12-24T02:33:35.278Z,0.00
2018-12-24T02:34:35.526Z,0.00
2018-12-24T02:35:35.646Z,0.00
2018-12-24T02:36:35.827Z,0.00
2018-12-24T02:37:36.020Z,0.00
2018-12-24T02:38:36.191Z,0.00
2018-12-24T02:39:36.373Z,0.00
2018-12-24T02:40:36.560Z,0.00
2018-12-24T02:41:36.762Z,0.00
2018-12-24T02:42:36.934Z,0.00
2018-12-24T02:43:37.116Z,0.00
2018-12-24T02:44:37.303Z,0.00
2018-12-24T02:45:37.478Z,0.00
2018-12-24T02:46:37.689Z,0.00
2018-12-24T02:47:37.849Z,0.00
2018-12-24T02:48:38.035Z,0.00
2018-12-24T02:49:38.215Z,0.00
2018-12-24T02:50:38.405Z,0.00
2018-12-24T02:51:38.586Z,0.00
2018-12-24T02:52:38.757Z,0.00
2018-12-24T02:53:38.973Z,0.00
2018-12-24T02:54:39.119Z,0.00
2018-12-24T02:55:39.302Z,0.00
2018-12-24T02:56:39.493Z,0.00
2018-12-24T02:57:39.673Z,0.00
2018-12-24T02:58:39.853Z,0.00
2018-12-24T02:59:40.050Z,0.00
2018-12-24T03:00:40.218Z,0.00
2018-12-24T03:01:40.402Z,0.00
2018-12-24T03:02:40.586Z,0.00
2018-12-24T03:03:40.781Z,0.00
2018-12-24T03:04:40.957Z,0.00
2018-12-24T03:05:41.143Z,0.00
2018-12-24T03:06:41.345Z,0.00
2018-12-24T03:07:41.512Z,0.00
2018-12-24T03:08:41.699Z,0.00
2018-12-24T03:09:41.881Z,0.00
2018-12-24T03:10:42.062Z,0.00
2018-12-24T03:11:42.238Z,0.00
2018-12-24T03:12:42.467Z,0.00
2018-12-24T03:13:42.620Z,0.00
2018-12-24T03:14:42.802Z,0.00
2018-12-24T03:15:42.991Z,0.00
2018-12-24T03:16:43.166Z,0.00
2018-12-24T03:17:43.346Z,0.00
2018-12-24T03:18:43.530Z,0.00
2018-12-24T03:19:43.710Z,0.00
2018-12-24T03:20:43.897Z,0.00
2018-12-24T03:21:44.074Z,0.00
2018-12-24T03:22:44.254Z,0.00
2018-12-24T03:23:44.435Z,0.00
2018-12-24T03:24:44.619Z,0.00
2018-12-24T03:25:44.799Z,0.00
2018-12-24T03:26:44.979Z,0.00
2018-12-24T03:27:45.168Z,0.00
2018-12-24T03:28:45.343Z,0.00
2018-12-24T03:29:45.528Z,0.00
2018-12-24T03:30:45.710Z,0.00
2018-12-24T03:31:45.897Z,0.00
2018-12-24T03:32:46.074Z,0.00
2018-12-24T03:33:46.261Z,0.00
2018-12-24T03:34:46.444Z,0.00
2018-12-24T03:35:46.631Z,0.00
2018-12-24T03:36:46.811Z,0.00
2018-12-24T03:37:46.987Z,0.00
2018-12-24T03:38:47.166Z,0.00
2018-12-24T03:39:47.349Z,0.00
2018-12-24T03:40:47.530Z,0.00
2018-12-24T03:41:47.717Z,0.00
2018-12-24T03:42:47.903Z,0.00
2018-12-24T03:43:48.083Z,0.00
2018-12-24T03:44:48.263Z,0.00
2018-12-24T03:45:48.446Z,0.00
2018-12-24T03:46:48.630Z,0.00
2018-12-24T03:47:48.804Z,0.00
2018-12-24T03:48:48.996Z,0.00
2018-12-24T03:49:49.167Z,0.00
2018-12-24T03:50:49.355Z,0.00
2018-12-24T03:51:49.530Z,0.00
2018-12-24T03:52:49.714Z,0.00
2018-12-24T03:53:49.892Z,0.00
2018-12-24T03:54:50.080Z,0.00
2018-12-24T03:55:50.267Z,0.00
2018-12-24T03:56:50.445Z,0.00
2018-12-24T03:57:50.628Z,0.00
2018-12-24T03:58:50.812Z,0.00
2018-12-24T03:59:51.000Z,0.00
2018-12-24T04:00:51.178Z,0.00
2018-12-24T04:01:51.374Z,0.00
2018-12-24T04:02:51.546Z,0.00
2018-12-24T04:03:51.731Z,0.00
2018-12-24T04:04:51.909Z,0.00
2018-12-24T04:05:52.093Z,0.00
2018-12-24T04:06:52.277Z,0.00
2018-12-24T04:07:52.462Z,0.00
2018-12-24T04:08:52.636Z,0.00
2018-12-24T04:09:52.828Z,0.00
2018-12-24T04:10:53.005Z,0.00
2018-12-24T04:11:53.193Z,0.00
2018-12-24T04:12:53.378Z,0.00
2018-12-24T04:13:53.553Z,0.00
2018-12-24T04:14:53.732Z,0.00
2018-12-24T04:15:53.919Z,0.00
2018-12-24T04:16:54.102Z,0.00
2018-12-24T04:17:54.278Z,0.00
2018-12-24T04:18:54.469Z,0.00
2018-12-24T04:19:54.652Z,0.00
2018-12-24T04:20:54.844Z,0.00
2018-12-24T04:21:55.031Z,0.00
2018-12-24T04:22:55.205Z,0.00
2018-12-24T04:23:55.387Z,0.00
2018-12-24T04:24:55.570Z,0.00
2018-12-24T04:25:55.754Z,0.00
2018-12-24T04:26:55.946Z,0.00
2018-12-24T04:27:56.119Z,0.00
2018-12-24T04:28:56.300Z,0.00
2018-12-24T04:29:56.480Z,0.00
2018-12-24T04:30:56.659Z,0.00
2018-12-24T04:31:56.842Z,0.00
2018-12-24T04:32:57.025Z,0.00
2018-12-24T04:33:57.204Z,0.00
2018-12-24T04:34:57.392Z,0.00
2018-12-24T04:35:57.570Z,0.00
2018-12-24T04:36:57.753Z,0.00
2018-12-24T04:37:57.938Z,0.00
2018-12-24T04:38:58.118Z,0.00
2018-12-24T04:39:58.305Z,0.00
2018-12-24T04:40:58.496Z,0.00
2018-12-24T04:41:58.677Z,0.00
2018-12-24T04:42:58.853Z,0.00
2018-12-24T04:43:59.339Z,0.00
2018-12-24T04:44:59.221Z,0.00
2018-12-24T04:45:59.401Z,0.00
2018-12-24T04:46:59.590Z,0.00
2018-12-24T04:47:59.856Z,0.00
2018-12-24T04:48:59.960Z,0.00
2018-12-24T04:50:00.286Z,0.00
2018-12-24T04:51:00.345Z,0.00
2018-12-24T04:52:00.488Z,0.00
2018-12-24T04:53:00.670Z,0.00
2018-12-24T04:54:00.856Z,0.00
2018-12-24T04:55:01.035Z,0.00
2018-12-24T04:56:01.205Z,0.00
2018-12-24T04:57:01.413Z,0.00
2018-12-24T04:58:01.580Z,0.00
2018-12-24T04:59:01.763Z,0.00
2018-12-24T05:00:01.947Z,0.00
2018-12-24T05:01:02.124Z,0.00
2018-12-24T05:02:02.304Z,0.00
2018-12-24T05:03:02.477Z,0.00
2018-12-24T05:04:02.666Z,0.00
2018-12-24T05:05:02.842Z,0.00
2018-12-24T05:06:03.035Z,0.00
2018-12-24T05:07:03.219Z,0.00
2018-12-24T05:08:03.387Z,0.00
2018-12-24T05:09:03.575Z,0.00
2018-12-24T05:10:03.746Z,0.00
2018-12-24T05:11:03.930Z,0.00
2018-12-24T05:12:04.109Z,0.00
2018-12-24T05:13:04.290Z,0.00
2018-12-24T05:14:04.485Z,0.00
2018-12-24T05:15:04.659Z,0.00
2018-12-24T05:16:04.836Z,0.00
2018-12-24T05:17:05.025Z,0.00
2018-12-24T05:18:05.215Z,0.00
2018-12-24T05:19:05.396Z,0.00
2018-12-24T05:20:05.574Z,0.00
2018-12-24T05:21:05.758Z,0.00
2018-12-24T05:22:05.956Z,0.00
2018-12-24T05:23:06.137Z,0.00
2018-12-24T05:24:06.310Z,0.00
2018-12-24T05:25:06.509Z,0.00
2018-12-24T05:26:06.674Z,0.00
2018-12-24T05:27:06.861Z,0.00
2018-12-24T05:28:07.046Z,0.00
2018-12-24T05:29:07.222Z,0.00
2018-12-24T05:30:07.415Z,0.00
2018-12-24T05:31:07.586Z,0.00
2018-12-24T05:32:07.770Z,0.00
2018-12-24T05:33:07.956Z,0.00
2018-12-24T05:34:08.133Z,0.00
2018-12-24T05:35:08.309Z,0.00
2018-12-24T05:36:08.484Z,0.00
2018-12-24T05:37:08.649Z,0.00
2018-12-24T05:38:08.873Z,0.00
2018-12-24T05:39:09.026Z,0.00
2018-12-24T05:40:09.213Z,0.00
2018-12-24T05:41:09.394Z,0.00
2018-12-24T05:42:09.591Z,0.00
2018-12-24T05:43:09.784Z,0.00
2018-12-24T05:44:09.967Z,0.00
2018-12-24T05:45:10.150Z,0.00
2018-12-24T05:46:10.347Z,0.00
2018-12-24T05:47:10.514Z,0.00
2018-12-24T05:48:10.703Z,0.00
2018-12-24T05:49:10.875Z,0.00
2018-12-24T05:50:11.063Z,0.00
2018-12-24T05:51:11.359Z,0.00
2018-12-24T05:52:11.426Z,0.00
2018-12-24T05:53:11.616Z,0.00
2018-12-24T05:54:11.856Z,0.00
2018-12-24T05:55:11.987Z,0.00
2018-12-24T05:56:12.169Z,0.00
2018-12-24T05:57:12.374Z,0.00
2018-12-24T05:58:12.529Z,0.00
2018-12-24T05:59:12.729Z,0.00
2018-12-24T06:00:12.908Z,0.00
2018-12-24T06:01:13.094Z,0.00
2018-12-24T06:02:13.276Z,0.00
2018-12-24T06:03:13.465Z,0.00
2018-12-24T06:04:13.645Z,0.00
2018-12-24T06:05:13.829Z,0.00
2018-12-24T06:06:14.032Z,0.00
2018-12-24T06:07:14.199Z,0.00
2018-12-24T06:08:14.380Z,0.00
2018-12-24T06:09:14.562Z,0.00
2018-12-24T06:10:14.741Z,0.00
2018-12-24T06:11:14.911Z,0.00
2018-12-24T06:12:15.120Z,0.00
2018-12-24T06:13:15.297Z,0.00
2018-12-24T06:14:15.493Z,0.00
2018-12-24T06:15:15.673Z,0.00
2018-12-24T06:16:15.851Z,0.00
2018-12-24T06:17:16.035Z,0.00
2018-12-24T06:18:16.208Z,0.00
2018-12-24T06:19:16.391Z,0.00
2018-12-24T06:20:16.573Z,0.00
2018-12-24T06:21:16.753Z,0.00
2018-12-24T06:22:16.939Z,0.00
2018-12-24T06:23:17.142Z,0.00
2018-12-24T06:24:17.315Z,0.00
2018-12-24T06:25:17.518Z,0.00
2018-12-24T06:26:17.716Z,0.00
2018-12-24T06:27:17.876Z,0.00
2018-12-24T06:28:18.063Z,0.00
2018-12-24T06:29:18.238Z,0.00
2018-12-24T06:30:18.421Z,0.00
2018-12-24T06:31:18.604Z,0.00
2018-12-24T06:32:18.784Z,0.00
2018-12-24T06:33:18.964Z,0.00
2018-12-24T06:34:19.153Z,0.00
2018-12-24T06:35:19.332Z,0.00
2018-12-24T06:36:19.522Z,0.00
2018-12-24T06:37:19.702Z,0.00
2018-12-24T06:38:19.883Z,0.00
2018-12-24T06:39:20.063Z,0.00
2018-12-24T06:40:20.244Z,0.00
2018-12-24T06:41:20.425Z,0.00
2018-12-24T06:42:20.605Z,0.00
2018-12-24T06:43:20.783Z,0.00
2018-12-24T06:44:20.981Z,0.00
2018-12-24T06:45:21.140Z,0.00
2018-12-24T06:46:21.325Z,0.00
2018-12-24T06:47:21.510Z,0.00
2018-12-24T06:48:21.694Z,0.00
2018-12-24T06:49:21.878Z,0.00
2018-12-24T06:50:22.818Z,0.00
2018-12-24T06:51:22.244Z,0.00
2018-12-24T06:52:22.406Z,0.00
2018-12-24T06:53:22.611Z,0.00
2018-12-24T06:54:22.797Z,4.00
2018-12-24T06:55:22.993Z,0.00
2018-12-24T06:56:23.161Z,4.00
2018-12-24T06:57:23.331Z,4.00
2018-12-24T06:58:23.551Z,8.00
2018-12-24T06:59:23.724Z,8.00
2018-12-24T07:00:23.905Z,4.00
2018-12-24T07:01:24.087Z,8.00
2018-12-24T07:02:24.267Z,8.00
2018-12-24T07:03:24.483Z,12.00
2018-12-24T07:04:24.673Z,12.00
2018-12-24T07:05:24.859Z,20.00
2018-12-24T07:06:25.037Z,16.00
2018-12-24T07:07:25.222Z,20.00
2018-12-24T07:08:25.408Z,20.00
2018-12-24T07:09:25.584Z,28.00
2018-12-24T07:10:25.771Z,28.00
2018-12-24T07:11:25.982Z,32.00
2018-12-24T07:12:26.131Z,36.00
2018-12-24T07:13:26.317Z,48.00
2018-12-24T07:14:26.498Z,48.00
2018-12-24T07:15:26.678Z,48.00
2018-12-24T07:16:26.884Z,52.00
2018-12-24T07:17:27.071Z,60.00
2018-12-24T07:18:27.249Z,64.00
2018-12-24T07:19:27.431Z,68.00
2018-12-24T07:20:27.615Z,76.00
2018-12-24T07:21:27.794Z,92.00
2018-12-24T07:22:27.975Z,128.00
2018-12-24T07:23:28.163Z,164.00
2018-12-24T07:24:28.346Z,196.00
2018-12-24T07:25:28.538Z,228.00
2018-12-24T07:26:28.713Z,256.00
2018-12-24T07:27:28.907Z,296.00
2018-12-24T07:28:29.084Z,352.00
2018-12-24T07:29:29.267Z,420.00
2018-12-24T07:30:29.449Z,496.00
2018-12-24T07:31:29.629Z,576.00
2018-12-24T07:32:29.815Z,664.00
2018-12-24T07:33:29.997Z,740.00
2018-12-24T07:34:32.534Z,820.00
2018-12-24T07:35:30.371Z,872.00
2018-12-24T07:36:30.536Z,880.00
2018-12-24T07:37:30.725Z,868.00
2018-12-24T07:38:30.890Z,812.00
2018-12-24T07:39:31.100Z,760.00
2018-12-24T07:40:31.274Z,772.00
2018-12-24T07:41:31.470Z,800.00
2018-12-24T07:42:31.653Z,840.00
2018-12-24T07:43:31.842Z,876.00
2018-12-24T07:44:32.035Z,912.00
2018-12-24T07:45:32.221Z,932.00
2018-12-24T07:46:32.406Z,944.00
2018-12-24T07:47:32.589Z,964.00
2018-12-24T07:48:32.796Z,980.00
2018-12-24T07:49:32.977Z,916.00
2018-12-24T07:50:33.166Z,864.00
2018-12-24T07:51:33.349Z,780.00
2018-12-24T07:52:33.533Z,652.00
2018-12-24T07:53:35.277Z,628.00
2018-12-24T07:54:33.897Z,572.00
2018-12-24T07:55:34.099Z,544.00
2018-12-24T07:56:34.277Z,536.00
2018-12-24T07:57:34.466Z,704.00
2018-12-24T07:58:34.643Z,672.00
2018-12-24T07:59:34.817Z,708.00
2018-12-24T08:00:35.125Z,1032.00
2018-12-24T08:01:35.203Z,808.00
2018-12-24T08:02:35.372Z,2864.00
2018-12-24T08:03:35.554Z,1848.00
2018-12-24T08:04:35.759Z,2192.00
2018-12-24T08:05:35.940Z,1104.00
2018-12-24T08:06:36.127Z,1264.00
2018-12-24T08:07:36.309Z,1408.00
2018-12-24T08:08:36.481Z,1428.00
2018-12-24T08:09:36.696Z,1396.00
2018-12-24T08:10:36.883Z,1224.00
2018-12-24T08:11:37.066Z,1020.00
2018-12-24T08:12:37.247Z,956.00
2018-12-24T08:13:37.432Z,856.00
2018-12-24T08:14:37.620Z,792.00
2018-12-24T08:15:37.820Z,804.00
2018-12-24T08:16:37.993Z,824.00
2018-12-24T08:17:38.178Z,848.00
2018-12-24T08:18:38.357Z,904.00
2018-12-24T08:19:38.541Z,944.00
2018-12-24T08:20:38.728Z,1020.00
2018-12-24T08:21:38.914Z,1100.00
2018-12-24T08:22:39.095Z,1204.00
2018-12-24T08:23:39.284Z,1276.00
2018-12-24T08:24:39.493Z,1428.00
2018-12-24T08:25:39.646Z,1464.00
2018-12-24T08:26:39.832Z,1500.00
2018-12-24T08:27:40.020Z,1612.00
2018-12-24T08:28:40.189Z,1484.00
2018-12-24T08:29:40.376Z,1296.00
2018-12-24T08:30:40.561Z,1252.00
2018-12-24T08:31:40.852Z,1180.00
2018-12-24T08:32:40.968Z,1204.00
2018-12-24T08:33:41.143Z,1244.00
2018-12-24T08:34:41.307Z,1468.00
2018-12-24T08:35:41.489Z,1604.00
2018-12-24T08:36:41.668Z,1676.00
2018-12-24T08:37:41.859Z,1740.00
2018-12-24T08:38:42.041Z,1800.00
2018-12-24T08:39:42.228Z,1832.00
2018-12-24T08:40:42.415Z,1900.00
2018-12-24T08:41:42.599Z,2052.00
2018-12-24T08:42:42.783Z,2056.00
2018-12-24T08:43:42.966Z,2116.00
2018-12-24T08:44:43.150Z,2288.00
2018-12-24T08:45:43.331Z,2508.00
2018-12-24T08:46:43.519Z,2540.00
2018-12-24T08:47:43.698Z,2492.00
2018-12-24T08:48:43.913Z,2568.00
2018-12-24T08:49:44.066Z,2716.00
2018-12-24T08:50:44.279Z,2848.00
2018-12-24T08:51:44.475Z,2900.00
2018-12-24T08:52:44.653Z,2872.00
2018-12-24T08:53:44.863Z,2920.00
2018-12-24T08:54:45.015Z,3084.00
2018-12-24T08:55:45.197Z,3388.00
2018-12-24T08:56:45.376Z,3876.00
2018-12-24T08:57:45.559Z,4540.00
2018-12-24T08:58:45.738Z,5196.00
2018-12-24T08:59:45.922Z,5996.00
2018-12-24T09:00:46.111Z,6832.00
2018-12-24T09:01:46.327Z,7672.00
2018-12-24T09:02:46.434Z,8188.00
2018-12-24T09:03:46.615Z,8556.00
2018-12-24T09:04:46.804Z,9464.00
2018-12-24T09:05:46.986Z,12552.00
2018-12-24T09:06:47.169Z,25920.00
2018-12-24T09:07:47.352Z,33184.00
2018-12-24T09:08:47.560Z,50272.00
2018-12-24T09:09:47.751Z,53600.00
2018-12-24T09:10:47.939Z,26464.00
2018-12-24T09:11:48.133Z,20288.00
2018-12-24T09:12:48.325Z,17056.00
2018-12-24T09:13:48.525Z,18784.00
2018-12-24T09:14:50.274Z,15648.00
2018-12-24T09:15:48.909Z,24672.00
2018-12-24T09:16:49.108Z,64864.00
2018-12-24T09:17:49.304Z,70592.00
2018-12-24T09:18:49.482Z,70208.00
2018-12-24T09:19:49.674Z,52288.00
2018-12-24T09:20:52.695Z,19488.00
2018-12-24T09:21:50.048Z,63200.00
2018-12-24T09:22:50.238Z,74208.00
2018-12-24T09:23:50.512Z,71520.00
2018-12-24T09:24:50.563Z,73504.00
2018-12-24T09:25:50.744Z,76640.00
2018-12-24T09:26:50.947Z,77184.00
2018-12-24T09:27:51.147Z,76064.00
2018-12-24T09:28:51.335Z,57504.00
2018-12-24T09:29:51.567Z,48128.00
2018-12-24T09:30:51.730Z,79616.00
2018-12-24T09:31:51.926Z,77440.00
2018-12-24T09:32:52.120Z,76832.00
2018-12-24T09:33:52.316Z,78688.00
2018-12-24T09:34:52.510Z,80128.00
2018-12-24T09:35:53.662Z,81216.00
2018-12-24T09:36:52.922Z,79808.00
2018-12-24T09:37:53.119Z,79712.00
2018-12-24T09:38:53.312Z,79040.00
2018-12-24T09:39:53.523Z,79488.00
2018-12-24T09:40:53.727Z,25888.00
2018-12-24T09:41:53.926Z,65024.00
2018-12-24T09:42:54.114Z,85248.00
2018-12-24T09:43:54.330Z,76928.00
2018-12-24T09:44:58.881Z,84352.00
2018-12-24T09:45:54.739Z,81952.00
2018-12-24T09:46:54.956Z,79104.00
2018-12-24T09:47:55.120Z,75840.00
2018-12-24T09:48:55.348Z,71456.00
2018-12-24T09:49:55.534Z,46144.00
2018-12-24T09:50:55.740Z,67584.00
2018-12-24T09:51:55.928Z,14548.00
2018-12-24T09:52:56.126Z,10584.00
2018-12-24T09:53:56.324Z,10644.00
2018-12-24T09:54:56.521Z,14100.00
2018-12-24T09:55:56.725Z,11036.00
2018-12-24T09:56:56.929Z,9472.00
2018-12-24T09:57:57.126Z,6700.00
2018-12-24T09:58:57.326Z,7424.00
2018-12-24T09:59:57.594Z,8276.00
2018-12-24T10:00:57.728Z,9232.00
2018-12-24T10:01:57.920Z,10892.00
2018-12-24T10:02:58.125Z,7612.00
2018-12-24T10:04:02.869Z,8252.00
2018-12-24T10:04:58.511Z,8448.00
2018-12-24T10:05:58.719Z,6968.00
2018-12-24T10:06:58.926Z,6852.00
2018-12-24T10:07:59.115Z,7080.00
2018-12-24T10:08:59.315Z,6732.00
2018-12-24T10:09:59.519Z,8616.00
2018-12-24T10:10:59.707Z,8812.00
2018-12-24T10:11:59.905Z,10396.00
2018-12-24T10:13:00.097Z,10656.00
2018-12-24T10:14:00.290Z,13344.00
2018-12-24T10:15:08.074Z,8648.00
2018-12-24T10:16:00.671Z,6000.00
2018-12-24T10:17:00.878Z,5964.00
2018-12-24T10:18:01.061Z,6744.00
2018-12-24T10:19:01.254Z,5368.00
2018-12-24T10:20:01.468Z,4876.00
2018-12-24T10:21:01.621Z,4752.00
2018-12-24T10:22:01.811Z,6312.00
2018-12-24T10:23:04.923Z,5136.00
2018-12-24T10:24:02.238Z,5128.00
2018-12-24T10:25:02.426Z,6372.00
2018-12-24T10:26:02.615Z,7408.00
2018-12-24T10:27:02.796Z,9172.00
2018-12-24T10:28:02.996Z,9156.00
2018-12-24T10:29:03.176Z,9064.00
2018-12-24T10:30:03.362Z,7856.00
2018-12-24T10:31:03.551Z,7032.00
2018-12-24T10:32:03.745Z,7140.00
2018-12-24T10:33:03.927Z,6932.00
2018-12-24T10:34:04.110Z,6288.00
2018-12-24T10:35:04.310Z,5812.00
2018-12-24T10:36:04.497Z,5832.00
2018-12-24T10:37:04.874Z,4904.00
2018-12-24T10:38:04.861Z,5772.00
2018-12-24T10:39:05.058Z,7708.00
2018-12-24T10:40:05.236Z,6980.00
2018-12-24T10:41:05.425Z,7136.00
2018-12-24T10:42:05.654Z,8176.00
2018-12-24T10:43:05.811Z,7500.00
2018-12-24T10:44:05.993Z,6452.00
2018-12-24T10:45:06.172Z,6872.00
2018-12-24T10:46:06.375Z,5824.00
2018-12-24T10:47:06.583Z,5436.00
2018-12-24T10:48:06.780Z,4472.00
2018-12-24T10:49:06.951Z,4688.00
2018-12-24T10:50:07.145Z,4684.00
2018-12-24T10:51:07.328Z,4268.00
2018-12-24T10:52:07.513Z,4444.00
2018-12-24T10:53:07.693Z,5432.00
2018-12-24T10:54:07.881Z,6156.00
2018-12-24T10:55:08.076Z,6776.00
2018-12-24T10:56:08.265Z,6564.00
2018-12-24T10:57:08.449Z,7148.00
2018-12-24T10:58:08.644Z,9292.00
2018-12-24T10:59:08.831Z,9984.00
2018-12-24T11:00:09.026Z,8764.00
2018-12-24T11:01:09.238Z,6620.00
2018-12-24T11:02:09.403Z,5880.00
2018-12-24T11:03:09.599Z,5584.00
2018-12-24T11:04:09.768Z,5248.00
2018-12-24T11:05:09.956Z,4584.00
2018-12-24T11:06:10.147Z,4580.00
2018-12-24T11:07:10.333Z,5028.00
2018-12-24T11:08:10.515Z,4724.00
2018-12-24T11:09:10.704Z,4880.00
2018-12-24T11:10:12.358Z,4872.00
2018-12-24T11:11:11.868Z,6492.00
2018-12-24T11:12:11.227Z,6576.00
2018-12-24T11:13:11.888Z,7416.00
2018-12-24T11:14:12.358Z,6732.00
2018-12-24T11:15:11.739Z,5368.00
2018-12-24T11:16:11.926Z,5288.00
2018-12-24T11:17:12.112Z,6160.00
2018-12-24T11:18:12.300Z,6492.00
2018-12-24T11:19:12.488Z,6712.00
2018-12-24T11:20:12.667Z,7344.00
2018-12-24T11:21:12.851Z,9304.00
2018-12-24T11:22:13.046Z,14696.00
2018-12-24T11:23:13.235Z,14008.00
2018-12-24T11:24:13.413Z,13972.00
2018-12-24T11:25:13.610Z,15164.00
2018-12-24T11:26:13.784Z,21696.00
2018-12-24T11:27:13.969Z,47776.00
2018-12-24T11:28:14.189Z,32288.00
2018-12-24T11:29:14.381Z,43584.00
2018-12-24T11:30:14.565Z,35136.00
2018-12-24T11:31:14.764Z,49280.00
2018-12-24T11:32:14.936Z,62496.00
2018-12-24T11:33:15.125Z,64064.00
2018-12-24T11:34:15.310Z,41568.00
2018-12-24T11:35:15.494Z,61920.00
2018-12-24T11:36:15.682Z,54784.00
2018-12-24T11:37:15.877Z,32448.00
2018-12-24T11:38:16.072Z,43968.00
2018-12-24T11:39:16.274Z,39744.00
2018-12-24T11:40:16.473Z,31264.00
2018-12-24T11:41:16.654Z,18912.00
2018-12-24T11:42:16.847Z,42432.00
2018-12-24T11:43:17.041Z,51296.00
2018-12-24T11:44:17.226Z,43872.00
2018-12-24T11:45:17.420Z,14412.00
2018-12-24T11:46:17.612Z,11452.00
2018-12-24T11:47:17.812Z,11504.00
2018-12-24T11:48:17.998Z,12968.00
2018-12-24T11:49:18.181Z,11768.00
2018-12-24T11:50:18.383Z,55520.00
2018-12-24T11:51:18.577Z,58688.00
2018-12-24T11:52:18.770Z,61600.00
2018-12-24T11:53:18.964Z,62912.00
2018-12-24T11:54:19.161Z,62240.00
2018-12-24T11:55:19.343Z,35776.00
2018-12-24T11:56:19.527Z,15128.00
2018-12-24T11:57:19.736Z,12852.00
2018-12-24T11:58:19.927Z,11940.00
2018-12-24T11:59:20.121Z,11172.00
2018-12-24T12:00:20.311Z,11044.00
2018-12-24T12:01:20.504Z,11324.00
2018-12-24T12:02:20.699Z,10596.00
2018-12-24T12:03:20.894Z,9964.00
2018-12-24T12:04:21.081Z,10408.00
2018-12-24T12:05:21.264Z,9856.00
2018-12-24T12:06:21.462Z,10200.00
2018-12-24T12:07:21.652Z,9832.00
2018-12-24T12:08:21.829Z,9796.00
2018-12-24T12:09:22.028Z,9496.00
2018-12-24T12:10:22.227Z,9608.00
2018-12-24T12:11:22.423Z,8788.00
2018-12-24T12:12:22.616Z,8804.00
2018-12-24T12:13:22.801Z,8788.00
2018-12-24T12:14:22.995Z,9120.00
2018-12-24T12:15:23.187Z,9656.00
2018-12-24T12:16:23.373Z,10820.00
2018-12-24T12:17:23.561Z,14352.00
2018-12-24T12:18:23.739Z,19680.00
2018-12-24T12:19:23.938Z,22944.00
2018-12-24T12:20:24.121Z,45568.00
2018-12-24T12:21:24.493Z,32800.00
2018-12-24T12:22:24.443Z,50176.00
2018-12-24T12:23:25.152Z,56128.00
2018-12-24T12:24:24.860Z,54304.00
2018-12-24T12:25:25.105Z,52640.00
2018-12-24T12:26:25.263Z,51360.00
2018-12-24T12:27:25.459Z,50304.00
2018-12-24T12:28:25.646Z,49472.00
2018-12-24T12:29:25.946Z,48736.00
2018-12-24T12:30:26.023Z,48032.00
2018-12-24T12:31:26.235Z,48288.00
2018-12-24T12:32:26.428Z,49120.00
2018-12-24T12:33:26.607Z,48448.00
2018-12-24T12:34:26.900Z,46240.00
2018-12-24T12:35:26.999Z,45280.00
2018-12-24T12:36:27.192Z,42400.00
2018-12-24T12:37:27.504Z,40576.00
2018-12-24T12:38:29.786Z,32160.00
2018-12-24T12:39:27.777Z,27104.00
2018-12-24T12:40:27.967Z,8984.00
2018-12-24T12:41:28.161Z,38016.00
2018-12-24T12:42:28.349Z,7320.00
2018-12-24T12:43:28.599Z,7476.00
2018-12-24T12:44:28.793Z,8168.00
2018-12-24T12:45:28.924Z,7140.00